Hartsburg, MO (65039)

2:18 PM CST on February 13, 2016 (GMT -0600)
Stonehenge | | Change Station
CLOSE
Current Station
Personal Weather Station
Location: Columbia, MO
Elevation: 761 ft
Nearby Weather Stations

Elev 761 ft 38.80 °N, 92.37 °W | Updated 9 minutes ago

Overcast
Overcast
20.7 °F
Feels Like 21 °F
N
1.1
Wind Variable Wind from SW

Today
High -- | Low -- °F
--% Chance of Precip.
Yesterday
High -- | Low -- °F
Precip. -- in
Pressure 30.57 in
Visibility 10.0 miles
Clouds Overcast 7000 ft
Windchill 21 °F
Dew Point 3 °F
Humidity 46%
Rainfall 0.00 in
Snow Depth Not available.
7:03 AM 5:44 PM
Waxing Crescent, 33% visible
METAR KCOU 131954Z 12006KT 10SM OVC070 M07/M18 A3053 RMK AO2 SLP352 T10721178
Pressure 30.57 in
Visibility 10.0 miles
Clouds Overcast 7000 ft
Windchill 21 °F
Dew Point 3 °F
Humidity 46%
Rainfall 0.00 in
Snow Depth Not available.
7:03 AM 5:44 PM
Waxing Crescent, 33% visible
METAR KCOU 131954Z 12006KT 10SM OVC070 M07/M18 A3053 RMK AO2 SLP352 T10721178

10-Day Weather Forecast

Almanac

Astronomy

Feb. 13, 2016 Rise Set
Actual Time
Civil Twilight
Nautical Twilight
Astronomical Twilight
Moon
Length of Visible Light
Length of Day
Tomorrow will be .
, % of the Moon is Illuminated

Today's Extremes

State Highs State Lows

Community

WunderPhotos

Upload Photos

1,892,658 photos uploaded!

WunderBlog® & News

Nearby

Air Quality

  Air Quality AQ Index Pollutant
Not available.

Snow Depth

Station Depth Elevation

Earthquake Activity

City Distance Mag. Time & Date
Minimum magnitude displayed is 2.5.

Coastal Water Temperatures

Place Temperature

Stations

Nearby Weather Stations

Station Location Temp. Windchill Dew Point Humidity Wind Precip. Elev Updated Type
                   

Watches & Warnings

There are currently no watches in effect.